createdAt,value
2022-10-03T00:02:32.981Z,15.72
2022-10-03T00:05:25.964Z,15.65
2022-10-03T00:08:01.208Z,15.58
2022-10-03T00:10:56.548Z,15.58
2022-10-03T00:14:09.796Z,15.55
2022-10-03T00:16:45.080Z,15.53
2022-10-03T00:19:17.612Z,15.43
2022-10-03T00:21:53.172Z,15.36
2022-10-03T00:24:39.496Z,15.37
2022-10-03T00:27:17.220Z,15.29
2022-10-03T00:30:04.917Z,15.27
2022-10-03T00:32:49.766Z,15.31
2022-10-03T00:36:01.244Z,15.35
2022-10-03T00:38:30.660Z,15.19
2022-10-03T00:41:16.145Z,15.16
2022-10-03T00:44:19.043Z,15.16
2022-10-03T00:46:48.718Z,15.01
2022-10-03T00:49:20.812Z,15.07
2022-10-03T00:52:15.005Z,15.20
2022-10-03T00:54:50.036Z,15.16
2022-10-03T00:57:51.697Z,15.15
2022-10-03T01:00:24.811Z,15.17
2022-10-03T01:02:56.989Z,15.17
2022-10-03T01:05:46.388Z,15.11
2022-10-03T01:08:37.680Z,14.95
2022-10-03T01:11:22.898Z,14.97
2022-10-03T01:14:26.943Z,14.92
2022-10-03T01:17:05.185Z,14.82
2022-10-03T01:19:59.070Z,14.95
2022-10-03T01:22:40.989Z,14.98
2022-10-03T01:25:18.737Z,14.99
2022-10-03T01:28:32.510Z,15.01
2022-10-03T01:31:07.772Z,15.06
2022-10-03T01:33:39.848Z,15.04
2022-10-03T01:36:25.387Z,14.96
2022-10-03T01:39:00.209Z,14.95
2022-10-03T01:41:59.014Z,14.85
2022-10-03T01:44:58.182Z,14.92
2022-10-03T01:47:34.234Z,14.96
2022-10-03T01:50:14.131Z,14.88
2022-10-03T01:52:43.611Z,14.83
2022-10-03T01:55:26.505Z,14.77
2022-10-03T01:58:01.129Z,14.75
2022-10-03T02:00:36.102Z,14.79
2022-10-03T02:03:15.697Z,14.77
2022-10-03T02:06:00.648Z,14.61
2022-10-03T02:09:16.246Z,14.56
2022-10-03T02:12:07.545Z,14.50
2022-10-03T02:14:46.472Z,14.40
2022-10-03T02:17:30.522Z,14.30
2022-10-03T02:20:07.947Z,14.32
2022-10-03T02:22:43.688Z,14.36
2022-10-03T02:25:25.600Z,14.34
2022-10-03T02:28:21.645Z,14.43
2022-10-03T02:31:33.352Z,14.48
2022-10-03T02:34:30.287Z,14.44
2022-10-03T02:37:16.918Z,14.44
2022-10-03T02:40:22.959Z,14.47
2022-10-03T02:42:52.199Z,14.39
2022-10-03T02:45:55.952Z,14.38
2022-10-03T02:48:43.848Z,14.38
2022-10-03T02:51:20.161Z,14.36
2022-10-03T02:54:11.401Z,14.34
2022-10-03T02:57:25.442Z,14.33
2022-10-03T03:00:11.973Z,14.30
2022-10-03T03:02:44.092Z,14.31
2022-10-03T03:05:44.561Z,14.26
2022-10-03T03:08:25.802Z,14.28
2022-10-03T03:11:10.840Z,14.27
2022-10-03T03:13:40.350Z,14.28
2022-10-03T03:16:12.719Z,14.34
2022-10-03T03:19:06.419Z,14.37
2022-10-03T03:21:51.189Z,14.25
2022-10-03T03:24:27.199Z,14.23
2022-10-03T03:27:12.573Z,14.26
2022-10-03T03:30:08.709Z,14.34
2022-10-03T03:32:35.097Z,14.43
2022-10-03T03:35:18.176Z,14.47
2022-10-03T03:38:04.943Z,14.46
2022-10-03T03:40:57.077Z,14.49
2022-10-03T03:44:06.427Z,14.56
2022-10-03T03:46:39.549Z,14.62
2022-10-03T03:49:19.088Z,14.67
2022-10-03T03:51:54.678Z,14.70
2022-10-03T03:54:36.022Z,14.72
2022-10-03T03:57:12.353Z,14.72
2022-10-03T03:59:50.153Z,14.72
2022-10-03T04:02:34.677Z,14.78
2022-10-03T04:05:08.526Z,14.80
2022-10-03T04:07:50.331Z,14.76
2022-10-03T04:10:42.708Z,14.78
2022-10-03T04:13:47.724Z,14.76
2022-10-03T04:16:45.133Z,14.72
2022-10-03T04:19:49.563Z,14.65
2022-10-03T04:22:55.413Z,14.57
2022-10-03T04:25:40.467Z,14.59
2022-10-03T04:28:27.305Z,14.61
2022-10-03T04:31:18.506Z,14.60
2022-10-03T04:34:09.838Z,14.59
2022-10-03T04:36:36.163Z,14.57
2022-10-03T04:39:30.592Z,14.52
2022-10-03T04:42:09.644Z,14.48
2022-10-03T04:44:54.457Z,14.44
2022-10-03T04:47:25.977Z,14.39
2022-10-03T04:50:02.240Z,14.28
2022-10-03T04:52:39.398Z,14.25
2022-10-03T04:55:28.254Z,14.28
2022-10-03T04:58:28.076Z,14.35
2022-10-03T05:01:11.159Z,14.42
2022-10-03T05:03:43.423Z,14.35
2022-10-03T05:06:34.523Z,14.33
2022-10-03T05:09:34.469Z,14.21
2022-10-03T05:12:09.682Z,14.18
2022-10-03T05:15:16.133Z,14.15
2022-10-03T05:18:01.795Z,14.07
2022-10-03T05:20:44.301Z,14.00
2022-10-03T05:23:26.079Z,14.06
2022-10-03T05:26:44.224Z,14.10
2022-10-03T05:29:44.140Z,14.07
2022-10-03T05:32:22.524Z,14.07
2022-10-03T05:35:04.142Z,14.06
2022-10-03T05:37:59.890Z,13.94
2022-10-03T05:40:32.693Z,13.95
2022-10-03T05:43:23.732Z,13.97
2022-10-03T05:46:03.483Z,13.94
2022-10-03T05:48:40.435Z,13.91
2022-10-03T05:51:13.303Z,13.94
2022-10-03T05:54:04.580Z,14.01
2022-10-03T05:56:52.112Z,14.05
2022-10-03T05:59:31.021Z,14.20
2022-10-03T06:02:18.986Z,14.29
2022-10-03T06:05:04.097Z,14.19
2022-10-03T06:08:05.881Z,14.01
2022-10-03T06:10:57.287Z,13.95
2022-10-03T06:13:23.591Z,13.96
2022-10-03T06:16:02.285Z,14.00
2022-10-03T06:18:34.916Z,13.93
2022-10-03T06:21:40.610Z,13.86
2022-10-03T06:24:25.445Z,13.81
2022-10-03T06:27:22.821Z,13.80
2022-10-03T06:30:11.892Z,13.89
2022-10-03T06:33:09.028Z,13.93
2022-10-03T06:36:05.708Z,14.01
2022-10-03T06:39:09.734Z,14.10
2022-10-03T06:42:00.943Z,14.21
2022-10-03T06:44:45.956Z,14.32
2022-10-03T06:47:18.614Z,14.43
2022-10-03T06:50:33.274Z,14.55
2022-10-03T06:53:24.229Z,14.62
2022-10-03T06:56:26.464Z,14.75
2022-10-03T06:59:05.041Z,14.80
2022-10-03T07:01:52.546Z,14.89
2022-10-03T07:04:51.750Z,14.91
2022-10-03T07:07:41.030Z,14.97
2022-10-03T07:10:38.437Z,15.02
2022-10-03T07:13:35.112Z,15.20
2022-10-03T07:16:27.465Z,15.36
2022-10-03T07:19:10.768Z,15.37
2022-10-03T07:21:58.905Z,15.41
2022-10-03T07:24:47.186Z,15.45
2022-10-03T07:27:40.328Z,15.51
2022-10-03T07:30:17.792Z,15.55
2022-10-03T07:33:05.897Z,15.63
2022-10-03T07:36:30.342Z,15.70
2022-10-03T07:39:02.543Z,15.75
2022-10-03T07:41:44.370Z,15.81
2022-10-03T07:44:30.969Z,15.82
2022-10-03T07:47:38.886Z,15.86
2022-10-03T07:50:41.761Z,15.91
2022-10-03T07:53:44.946Z,15.97
2022-10-03T07:56:42.785Z,16.02
2022-10-03T07:59:45.132Z,16.16
2022-10-03T08:02:26.941Z,16.25
2022-10-03T08:05:38.219Z,16.21
2022-10-03T08:08:33.928Z,16.20
2022-10-03T08:11:21.856Z,16.37
2022-10-03T08:14:00.681Z,16.47
2022-10-03T08:16:52.505Z,16.50
2022-10-03T08:19:27.126Z,16.50
2022-10-03T08:22:06.310Z,16.58
2022-10-03T08:25:10.186Z,16.75
2022-10-03T08:27:42.609Z,16.86
2022-10-03T08:30:24.209Z,16.87
2022-10-03T08:32:56.889Z,16.87
2022-10-03T08:35:31.825Z,17.02
2022-10-03T08:38:19.777Z,17.03
2022-10-03T08:41:16.000Z,17.09
2022-10-03T08:43:54.456Z,17.18
2022-10-03T08:46:26.844Z,17.34
2022-10-03T08:48:59.260Z,17.50
2022-10-03T08:51:59.946Z,17.69
2022-10-03T08:54:45.047Z,17.81
2022-10-03T08:57:34.755Z,17.88
2022-10-03T09:00:04.596Z,17.82
2022-10-03T09:03:33.088Z,17.92
2022-10-03T09:06:25.694Z,18.09
2022-10-03T09:09:00.936Z,18.25
2022-10-03T09:11:42.401Z,18.30
2022-10-03T09:14:20.838Z,18.27
2022-10-03T09:17:14.157Z,18.34
2022-10-03T09:20:16.169Z,18.52
2022-10-03T09:23:20.813Z,18.48
2022-10-03T09:26:15.037Z,18.69
2022-10-03T09:29:08.628Z,18.84
2022-10-03T09:31:42.601Z,18.98
2022-10-03T09:34:31.258Z,18.96
2022-10-03T09:37:25.674Z,18.88
2022-10-03T09:40:20.049Z,19.14
2022-10-03T09:42:52.525Z,19.40
2022-10-03T09:45:32.988Z,19.57
2022-10-03T09:48:38.077Z,19.63
2022-10-03T09:51:32.069Z,19.73
2022-10-03T09:54:25.730Z,19.87
2022-10-03T09:57:38.862Z,19.95
2022-10-03T10:00:17.401Z,20.14
2022-10-03T10:02:49.853Z,20.23
2022-10-03T10:05:31.393Z,20.32
2022-10-03T10:08:25.677Z,20.18
2022-10-03T10:11:01.273Z,20.17
2022-10-03T10:14:08.858Z,20.39
2022-10-03T10:17:09.116Z,20.60
2022-10-03T10:20:07.341Z,20.87
2022-10-03T10:23:10.368Z,20.81
2022-10-03T10:26:01.795Z,20.78
2022-10-03T10:29:00.246Z,20.78
2022-10-03T10:31:45.146Z,20.83
2022-10-03T10:34:14.585Z,20.86
2022-10-03T10:36:59.181Z,20.82
2022-10-03T10:39:44.189Z,20.70
2022-10-03T10:42:52.181Z,20.64
2022-10-03T10:45:27.245Z,20.61
2022-10-03T10:47:53.575Z,20.81
2022-10-03T10:50:32.148Z,21.01
2022-10-03T10:53:38.177Z,21.24
2022-10-03T10:56:15.294Z,21.42
2022-10-03T10:59:12.526Z,21.30
2022-10-03T11:01:46.095Z,21.51
2022-10-03T11:04:19.024Z,21.48
2022-10-03T11:07:08.374Z,21.46
2022-10-03T11:10:21.946Z,21.40
2022-10-03T11:12:58.791Z,21.28
2022-10-03T11:15:54.451Z,21.40
2022-10-03T11:18:59.574Z,21.70
2022-10-03T11:22:05.526Z,21.76
2022-10-03T11:24:41.024Z,21.74
2022-10-03T11:27:37.716Z,21.67
2022-10-03T11:30:28.360Z,21.59
2022-10-03T11:33:14.975Z,21.23
2022-10-03T11:35:59.695Z,21.16
2022-10-03T11:38:30.904Z,21.27
2022-10-03T11:41:31.313Z,21.40
2022-10-03T11:44:19.291Z,21.63
2022-10-03T11:46:57.688Z,21.85
2022-10-03T11:49:35.414Z,21.89
2022-10-03T11:52:23.408Z,21.76
2022-10-03T11:55:03.382Z,21.79
2022-10-03T11:57:39.436Z,21.80
2022-10-03T12:00:16.606Z,21.80
2022-10-03T12:03:01.626Z,21.69
2022-10-03T12:05:48.705Z,21.90
2022-10-03T12:08:55.608Z,22.03
2022-10-03T12:11:53.693Z,22.25
2022-10-03T12:14:27.072Z,22.32
2022-10-03T12:17:15.888Z,22.45
2022-10-03T12:19:45.077Z,22.32
2022-10-03T12:22:37.793Z,22.33
2022-10-03T12:25:23.699Z,22.30
2022-10-03T12:28:12.568Z,22.41
2022-10-03T12:30:51.288Z,22.42
2022-10-03T12:33:30.102Z,22.43
2022-10-03T12:36:03.185Z,22.52
2022-10-03T12:38:54.859Z,22.59
2022-10-03T12:42:15.328Z,22.62
2022-10-03T12:44:57.947Z,22.68
2022-10-03T12:47:50.938Z,22.65
2022-10-03T12:50:22.857Z,22.60
2022-10-03T12:53:10.622Z,22.57
2022-10-03T12:55:41.080Z,22.49
2022-10-03T12:58:19.609Z,22.52
2022-10-03T13:01:23.245Z,22.48
2022-10-03T13:04:05.687Z,22.44
2022-10-03T13:07:05.068Z,22.43
2022-10-03T13:09:27.795Z,22.26
2022-10-03T13:11:54.273Z,22.24
2022-10-03T13:15:02.896Z,22.34
2022-10-03T13:17:46.754Z,22.41
2022-10-03T13:20:26.528Z,22.50
2022-10-03T13:23:10.668Z,22.61
2022-10-03T13:25:46.282Z,22.76
2022-10-03T13:28:22.587Z,22.86
2022-10-03T13:31:19.983Z,22.84
2022-10-03T13:33:52.517Z,22.70
2022-10-03T13:36:26.201Z,22.79
2022-10-03T13:39:02.639Z,22.77
2022-10-03T13:41:31.023Z,22.73
2022-10-03T13:43:57.366Z,22.72
2022-10-03T13:46:45.025Z,22.72
2022-10-03T13:49:32.112Z,22.71
2022-10-03T13:52:16.030Z,22.59
2022-10-03T13:55:08.800Z,22.58
2022-10-03T13:57:53.723Z,22.61
2022-10-03T14:00:23.550Z,22.67
2022-10-03T14:03:01.618Z,22.89
2022-10-03T14:05:30.956Z,22.92
2022-10-03T14:08:33.951Z,22.86
2022-10-03T14:11:22.771Z,22.79
2022-10-03T14:14:12.626Z,22.87
2022-10-03T14:16:53.878Z,22.91
2022-10-03T14:19:35.142Z,22.93
2022-10-03T14:22:29.488Z,22.91
2022-10-03T14:25:10.094Z,22.93
2022-10-03T14:27:36.451Z,22.93
2022-10-03T14:30:16.675Z,22.98
2022-10-03T14:32:54.909Z,22.94
2022-10-03T14:36:02.966Z,22.96
2022-10-03T14:39:01.902Z,22.93
2022-10-03T14:41:31.066Z,22.90
2022-10-03T14:44:01.667Z,22.87
2022-10-03T14:46:35.363Z,22.87
2022-10-03T14:49:05.513Z,22.94
2022-10-03T14:51:40.855Z,22.98
2022-10-03T14:54:16.373Z,22.96
2022-10-03T14:56:46.620Z,22.96
2022-10-03T14:59:36.066Z,22.98
2022-10-03T15:02:21.476Z,22.92
2022-10-03T15:04:48.451Z,22.91
2022-10-03T15:07:15.389Z,22.92
2022-10-03T15:09:52.765Z,22.90
2022-10-03T15:12:23.861Z,22.85
2022-10-03T15:15:15.734Z,22.86
2022-10-03T15:17:49.393Z,22.91
2022-10-03T15:20:26.807Z,22.96
2022-10-03T15:22:56.836Z,22.92
2022-10-03T15:25:28.880Z,22.92
2022-10-03T15:27:58.705Z,22.88
2022-10-03T15:30:31.910Z,22.80
2022-10-03T15:33:25.481Z,22.72
2022-10-03T15:35:59.147Z,22.66
2022-10-03T15:38:38.771Z,22.61
2022-10-03T15:41:28.001Z,22.64
2022-10-03T15:44:06.242Z,22.61
2022-10-03T15:46:48.107Z,22.58
2022-10-03T15:49:36.520Z,22.52
2022-10-03T15:52:22.959Z,22.48
2022-10-03T15:55:11.153Z,22.49
2022-10-03T15:57:43.723Z,22.47
2022-10-03T16:00:21.477Z,22.45
2022-10-03T16:02:56.841Z,22.45
2022-10-03T16:05:25.452Z,22.45
2022-10-03T16:07:59.881Z,22.43
2022-10-03T16:10:31.348Z,22.38
2022-10-03T16:13:35.428Z,22.36
2022-10-03T16:16:10.237Z,22.31
2022-10-03T16:19:05.676Z,22.30
2022-10-03T16:21:44.150Z,22.24
2022-10-03T16:24:24.426Z,22.17
2022-10-03T16:26:56.779Z,22.11
2022-10-03T16:29:28.485Z,22.03
2022-10-03T16:32:01.389Z,21.98
2022-10-03T16:34:31.089Z,21.89
2022-10-03T16:36:58.899Z,21.80
2022-10-03T16:39:30.081Z,21.75
2022-10-03T16:41:56.816Z,21.68
2022-10-03T16:44:35.804Z,21.58
2022-10-03T16:47:04.080Z,21.48
2022-10-03T16:50:03.316Z,21.39
2022-10-03T16:52:35.065Z,21.32
2022-10-03T16:55:07.317Z,21.24
2022-10-03T16:57:44.174Z,21.17
2022-10-03T17:00:20.397Z,21.09
2022-10-03T17:02:48.254Z,21.00
2022-10-03T17:05:16.232Z,20.89
2022-10-03T17:07:47.033Z,20.79
2022-10-03T17:10:39.764Z,20.69
2022-10-03T17:13:14.044Z,20.60
2022-10-03T17:16:06.291Z,20.56
2022-10-03T17:18:41.778Z,20.49
2022-10-03T17:21:31.048Z,20.49
2022-10-03T17:24:15.097Z,20.45
2022-10-03T17:26:48.041Z,20.41
2022-10-03T17:29:42.646Z,20.39
2022-10-03T17:32:24.392Z,20.38
2022-10-03T17:35:19.301Z,20.29
2022-10-03T17:38:19.626Z,20.19
2022-10-03T17:41:15.054Z,20.12
2022-10-03T17:44:07.254Z,20.11
2022-10-03T17:46:58.238Z,20.05
2022-10-03T17:49:39.829Z,20.02
2022-10-03T17:52:14.841Z,19.95
2022-10-03T17:54:46.459Z,19.92
2022-10-03T17:57:28.289Z,19.87
2022-10-03T18:00:05.315Z,19.79
2022-10-03T18:02:37.310Z,19.79
2022-10-03T18:05:13.865Z,19.79
2022-10-03T18:07:43.250Z,19.70
2022-10-03T18:10:22.798Z,19.65
2022-10-03T18:12:53.691Z,19.64
2022-10-03T18:15:52.282Z,19.63
2022-10-03T18:18:48.007Z,19.57
2022-10-03T18:21:25.111Z,19.53
2022-10-03T18:24:03.989Z,19.49
2022-10-03T18:26:56.789Z,19.49
2022-10-03T18:29:32.654Z,19.43
2022-10-03T18:32:14.274Z,19.38
2022-10-03T18:34:46.285Z,19.31
2022-10-03T18:37:27.839Z,19.24
2022-10-03T18:39:56.723Z,19.26
2022-10-03T18:42:27.766Z,19.29
2022-10-03T18:44:57.348Z,19.26
2022-10-03T18:47:39.355Z,19.19
2022-10-03T18:50:29.822Z,19.13
2022-10-03T18:53:06.736Z,19.09
2022-10-03T18:55:47.182Z,19.02
2022-10-03T18:58:46.173Z,18.96
2022-10-03T19:01:25.335Z,18.95
2022-10-03T19:03:59.238Z,18.96
2022-10-03T19:06:44.338Z,18.92
2022-10-03T19:09:24.634Z,18.88
2022-10-03T19:12:01.629Z,18.90
2022-10-03T19:14:38.135Z,18.90
2022-10-03T19:17:21.169Z,18.81
2022-10-03T19:19:56.569Z,18.75
2022-10-03T19:22:33.764Z,18.68
2022-10-03T19:25:04.875Z,18.67
2022-10-03T19:27:57.850Z,18.61
2022-10-03T19:30:27.450Z,18.56
2022-10-03T19:33:05.847Z,18.57
2022-10-03T19:35:35.562Z,18.57
2022-10-03T19:38:07.224Z,18.53
2022-10-03T19:40:56.329Z,18.54
2022-10-03T19:43:42.053Z,18.59
2022-10-03T19:46:35.268Z,18.63
2022-10-03T19:49:33.001Z,18.57
2022-10-03T19:52:27.882Z,18.49
2022-10-03T19:55:00.945Z,18.46
2022-10-03T19:57:33.392Z,18.52
2022-10-03T20:00:03.732Z,18.53
2022-10-03T20:02:31.273Z,18.45
2022-10-03T20:04:58.235Z,18.34
2022-10-03T20:07:41.207Z,18.27
2022-10-03T20:10:26.300Z,18.21
2022-10-03T20:12:53.620Z,18.21
2022-10-03T20:15:25.451Z,18.22
2022-10-03T20:17:59.229Z,18.14
2022-10-03T20:20:26.504Z,18.10
2022-10-03T20:22:55.671Z,18.08
2022-10-03T20:25:32.999Z,18.07
2022-10-03T20:28:04.637Z,17.97
2022-10-03T20:30:48.568Z,17.91
2022-10-03T20:33:31.520Z,17.85
2022-10-03T20:36:22.006Z,17.83
2022-10-03T20:38:54.082Z,17.75
2022-10-03T20:41:47.548Z,17.67
2022-10-03T20:44:17.763Z,17.68
2022-10-03T20:46:50.575Z,17.73
2022-10-03T20:49:25.949Z,17.71
2022-10-03T20:51:52.313Z,17.67
2022-10-03T20:54:21.167Z,17.57
2022-10-03T20:57:02.810Z,17.56
2022-10-03T20:59:48.109Z,17.64
2022-10-03T21:02:52.998Z,17.62
2022-10-03T21:05:36.548Z,17.61
2022-10-03T21:08:10.690Z,17.62
2022-10-03T21:10:40.446Z,17.63
2022-10-03T21:13:23.646Z,17.61
2022-10-03T21:15:59.151Z,17.56
2022-10-03T21:18:31.006Z,17.56
2022-10-03T21:21:19.372Z,17.49
2022-10-03T21:23:53.245Z,17.44
2022-10-03T21:26:31.462Z,17.42
2022-10-03T21:29:19.821Z,17.38
2022-10-03T21:32:04.595Z,17.37
2022-10-03T21:34:42.835Z,17.38
2022-10-03T21:37:43.071Z,17.44
2022-10-03T21:40:15.562Z,17.41
2022-10-03T21:42:53.957Z,17.34
2022-10-03T21:45:38.235Z,17.25
2022-10-03T21:48:51.488Z,17.14
2022-10-03T21:51:25.797Z,17.11
2022-10-03T21:54:10.947Z,17.14
2022-10-03T21:57:01.032Z,17.10
2022-10-03T21:59:36.430Z,17.16
2022-10-03T22:02:17.090Z,17.22
2022-10-03T22:04:51.771Z,17.14
2022-10-03T22:07:29.385Z,17.05
2022-10-03T22:09:55.955Z,17.08
2022-10-03T22:12:26.563Z,16.99
2022-10-03T22:15:02.124Z,16.87
2022-10-03T22:17:40.136Z,16.80
2022-10-03T22:20:21.766Z,16.78
2022-10-03T22:23:03.139Z,16.91
2022-10-03T22:25:40.724Z,16.85
2022-10-03T22:28:19.382Z,16.80
2022-10-03T22:31:15.858Z,16.67
2022-10-03T22:33:51.998Z,16.63
2022-10-03T22:36:19.556Z,16.64
2022-10-03T22:38:47.902Z,16.63
2022-10-03T22:41:21.629Z,16.62
2022-10-03T22:43:49.391Z,16.64
2022-10-03T22:46:25.018Z,16.65
2022-10-03T22:48:57.560Z,16.65
2022-10-03T22:51:24.967Z,16.65
2022-10-03T22:53:57.961Z,16.62
2022-10-03T22:56:50.525Z,16.60
2022-10-03T22:59:27.319Z,16.60
2022-10-03T23:01:57.088Z,16.62
2022-10-03T23:04:28.349Z,16.64
2022-10-03T23:07:01.319Z,16.62
2022-10-03T23:09:30.456Z,16.61
2022-10-03T23:11:57.606Z,16.59
2022-10-03T23:14:31.669Z,16.59
2022-10-03T23:17:39.792Z,16.61
2022-10-03T23:20:22.259Z,16.59
2022-10-03T23:22:54.910Z,16.59
2022-10-03T23:25:31.366Z,16.51
2022-10-03T23:28:18.986Z,16.44
2022-10-03T23:30:50.258Z,16.38
2022-10-03T23:33:36.610Z,16.36
2022-10-03T23:36:09.743Z,16.32
2022-10-03T23:38:36.151Z,16.34
2022-10-03T23:41:13.279Z,16.35
2022-10-03T23:43:49.064Z,16.35
2022-10-03T23:46:20.501Z,16.33
2022-10-03T23:48:50.139Z,16.35
2022-10-03T23:51:21.112Z,16.37
2022-10-03T23:53:51.456Z,16.35
2022-10-03T23:56:21.246Z,16.31
2022-10-03T23:59:05.078Z,16.27
